Search for airport 
image banner adimage banner adimage banner ad
image banner ad

60CL - Chp Academy

Located in Bryte, United States

ICAO - 60CL, IATA -

Data provided by Airmate  

General information

Coordinates: N38°35'56" W121°33'38"
Elevation is 20 feet MSL.
Magnetic variation is 16° East
View others Airports in California

Operational data

Special qualification required
Current time UTC:
Current local time:
Weather at : KSMF - Sacramento Intl ( 11 km )
METAR: KSMF 210953Z 15010KT 10SM BKN200 17/10 A2978 RMK AO2 SLP084 T01720100
TAF: KSMF 210520Z 2106/2206 18011KT P6SM SKC
View NOTAMs / SUP AIP / TFR affecting this airport [VIEW]
Communications frequencies: [VIEW]

Runways:

RWY identifierQFULength (ft)Width (ft)SurfaceLDA (ft)
05140024ASPH
23140024ASPH
16120020ASPH
34120020ASPH

Airport contact information

Address: Bryte United States

Satellite view of 60CL